Time;durP1;ratioP1;P1;durP2;ratioP2;P2;SDS_P1;SDS_P2;PMS_P1;PMS_P2;Temp;Humidity;BMP_temperature;BMP_pressure;BME280_temperature;BME280_humidity;BME280_pressure;Samples;Min_cycle;Max_cycle;Signal;HPM_P1;HPM_P2
2023/07/16 00:02:02;;;;;;;10.38;3.70;;;;;;;21.63;49.04;100814.28;5051106;28;20113;-46
2023/07/16 00:04:27;;;;;;;9.75;3.53;;;;;;;21.45;49.48;100812.22;5034139;28;20033;-44
2023/07/16 00:06:53;;;;;;;12.82;3.92;;;;;;;21.41;49.44;100807.91;5055049;28;20033;-48
2023/07/16 00:09:18;;;;;;;10.68;3.80;;;;;;;21.58;48.97;100802.97;5055969;28;20037;-45
2023/07/16 00:11:43;;;;;;;8.35;3.50;;;;;;;21.62;48.87;100795.75;5037722;28;20112;-51
2023/07/16 00:14:11;;;;;;;13.57;4.20;;;;;;;21.44;49.25;100799.88;5055874;28;20025;-45
2023/07/16 00:16:37;;;;;;;12.98;4.15;;;;;;;21.44;49.21;100808.72;5053337;28;20052;-48
2023/07/16 00:19:03;;;;;;;12.52;4.28;;;;;;;21.59;48.73;100811.78;5052637;28;20064;-45
2023/07/16 00:21:28;;;;;;;10.55;3.83;;;;;;;21.53;48.96;100806.69;5053647;28;20033;-50
2023/07/16 00:23:53;;;;;;;10.63;4.30;;;;;;;21.42;49.33;100810.53;5035642;28;20079;-43
2023/07/16 00:26:19;;;;;;;14.18;4.50;;;;;;;21.45;49.08;100815.75;5053782;28;20040;-45
2023/07/16 00:28:44;;;;;;;15.75;4.60;;;;;;;21.34;49.43;100817.00;5054218;28;20037;-45
2023/07/16 00:31:10;;;;;;;10.18;4.10;;;;;;;21.41;49.44;100807.91;5053899;28;20029;-45
2023/07/16 00:33:35;;;;;;;11.23;4.28;;;;;;;21.16;49.77;100799.03;5053502;28;20025;-45
2023/07/16 00:36:01;;;;;;;13.77;4.55;;;;;;;21.06;50.24;100807.22;5054526;28;20032;-52
2023/07/16 00:38:26;;;;;;;12.65;4.10;;;;;;;21.33;49.35;100799.38;5054707;28;20033;-44
2023/07/16 00:40:52;;;;;;;9.98;4.55;;;;;;;21.47;49.36;100804.22;5053049;28;20567;-44
2023/07/16 00:43:17;;;;;;;13.52;4.60;;;;;;;21.47;49.18;100805.06;5052892;28;20037;-49
2023/07/16 00:45:45;;;;;;;13.02;4.72;;;;;;;21.12;50.17;100803.50;5052231;28;20086;-44
2023/07/16 00:48:12;;;;;;;12.98;4.55;;;;;;;21.16;49.90;100797.25;5052797;28;20124;-44
2023/07/16 00:50:39;;;;;;;11.88;4.38;;;;;;;21.24;49.89;100810.25;5052504;28;20569;-48
2023/07/16 00:53:06;;;;;;;12.77;4.30;;;;;;;21.56;49.23;100812.75;5052395;28;20180;-44
2023/07/16 00:55:33;;;;;;;15.13;5.40;;;;;;;21.27;50.01;100812.81;5052934;28;20029;-46
2023/07/16 00:58:05;;;;;;;14.90;4.22;;;;;;;21.37;50.00;100819.56;5052029;28;20048;-44
2023/07/16 01:00:39;;;;;;;9.32;4.50;;;;;;;21.57;49.45;100818.91;5052498;28;20041;-50
2023/07/16 01:03:08;;;;;;;12.00;4.70;;;;;;;21.34;50.16;100815.22;5034168;28;20065;-44
2023/07/16 01:05:42;;;;;;;15.57;4.95;;;;;;;21.26;50.47;100814.59;5052496;28;20067;-46
2023/07/16 01:08:10;;;;;;;11.75;4.63;;;;;;;21.53;49.69;100819.94;5052129;28;20036;-45
2023/07/16 01:10:39;;;;;;;14.05;4.63;;;;;;;21.23;50.56;100816.47;5034358;28;20041;-45
2023/07/16 01:13:05;;;;;;;14.05;4.60;;;;;;;21.40;50.30;100824.78;5052268;28;20412;-45
2023/07/16 01:15:30;;;;;;;14.55;5.07;;;;;;;21.49;50.04;100821.81;5052780;28;20033;-43
2023/07/16 01:17:55;;;;;;;14.75;4.78;;;;;;;21.55;49.92;100820.75;5051579;28;20036;-45
2023/07/16 01:20:21;;;;;;;13.98;5.30;;;;;;;21.01;51.37;100817.09;5051931;28;20064;-50
2023/07/16 01:23:04;;;;;;;11.55;5.15;;;;;;;21.29;51.03;100814.47;5051780;28;20037;-43
2023/07/16 01:26:00;;;;;;;16.65;4.82;;;;;;;21.40;50.86;100816.81;5052141;28;20427;-47
2023/07/16 01:28:50;;;;;;;18.27;5.25;;;;;;;21.17;51.43;100806.91;5051830;28;20041;-53
2023/07/16 01:31:17;;;;;;;11.55;4.60;;;;;;;21.20;51.29;100812.13;5051551;28;20041;-46
2023/07/16 01:33:44;;;;;;;16.35;5.45;;;;;;;21.30;51.07;100821.53;5052162;28;20355;-47
2023/07/16 01:36:09;;;;;;;13.18;5.18;;;;;;;20.94;52.02;100817.31;5052890;28;20078;-41
2023/07/16 01:38:36;;;;;;;14.23;5.40;;;;;;;21.09;51.95;100822.19;5034603;28;20363;-45
2023/07/16 01:41:01;;;;;;;13.52;5.63;;;;;;;21.28;51.07;100817.22;5050976;28;20442;-44
2023/07/16 01:43:27;;;;;;;14.55;5.70;;;;;;;21.16;51.59;100807.00;5052132;28;20118;-44
2023/07/16 01:45:52;;;;;;;18.40;5.93;;;;;;;20.94;52.04;100815.53;5051054;28;20100;-46
2023/07/16 01:48:33;;;;;;;12.50;5.32;;;;;;;21.24;51.18;100812.91;5051820;28;20040;-44
2023/07/16 01:50:58;;;;;;;16.23;5.93;;;;;;;21.16;51.43;100807.84;5050971;28;20045;-44
2023/07/16 01:53:24;;;;;;;13.98;5.88;;;;;;;21.07;51.91;100810.75;5052191;28;20074;-44
2023/07/16 01:55:49;;;;;;;15.30;6.35;;;;;;;20.99;51.77;100810.97;5051764;28;20403;-46
2023/07/16 01:58:15;;;;;;;12.85;6.00;;;;;;;20.89;51.92;100812.16;5055437;28;20057;-49
2023/07/16 02:00:40;;;;;;;14.70;5.80;;;;;;;21.14;51.26;100819.38;5051331;28;20037;-43
2023/07/16 02:03:06;;;;;;;15.20;5.82;;;;;;;20.84;52.11;100815.88;5051418;28;20033;-43
2023/07/16 02:05:31;;;;;;;18.73;6.30;;;;;;;21.29;50.81;100822.44;5052280;28;20309;-48
2023/07/16 02:07:56;;;;;;;12.98;5.60;;;;;;;21.17;51.35;100817.53;5052886;28;20493;-46
2023/07/16 02:10:22;;;;;;;15.07;6.18;;;;;;;21.33;50.96;100813.50;5052370;28;20365;-43
2023/07/16 02:12:47;;;;;;;19.95;6.30;;;;;;;20.98;51.84;100811.03;5032813;28;20055;-47
2023/07/16 02:15:13;;;;;;;13.88;6.10;;;;;;;21.12;51.79;100815.91;5051369;28;20041;-44
2023/07/16 02:17:38;;;;;;;18.55;5.80;;;;;;;21.16;51.23;100801.69;5051165;28;20060;-44
2023/07/16 02:20:07;;;;;;;17.42;6.30;;;;;;;21.08;51.63;100807.19;5050349;28;20086;-50
2023/07/16 02:22:33;;;;;;;16.25;6.05;;;;;;;21.31;51.03;100807.34;5050958;28;20448;-43
2023/07/16 02:24:59;;;;;;;14.13;6.07;;;;;;;20.96;51.86;100802.25;5050632;28;20071;-44
2023/07/16 02:27:24;;;;;;;17.35;6.60;;;;;;;21.24;51.16;100799.63;5050992;28;20045;-49
2023/07/16 02:29:49;;;;;;;16.90;6.28;;;;;;;21.15;51.76;100810.50;5050250;28;20029;-44
2023/07/16 02:32:15;;;;;;;15.32;6.60;;;;;;;21.26;51.14;100805.78;5051464;28;20119;-45
2023/07/16 02:34:40;;;;;;;16.23;6.70;;;;;;;21.20;51.71;100813.91;5050492;28;20059;-45
2023/07/16 02:37:05;;;;;;;17.23;7.00;;;;;;;21.08;52.26;100814.25;5050680;28;20121;-44
2023/07/16 02:39:31;;;;;;;17.50;6.45;;;;;;;21.10;51.90;100821.28;5050294;28;20032;-46
2023/07/16 02:41:56;;;;;;;15.68;6.78;;;;;;;21.00;52.34;100810.06;5032640;28;20040;-44
2023/07/16 02:44:21;;;;;;;14.40;6.60;;;;;;;20.95;53.07;100833.19;5051287;28;20037;-45
2023/07/16 02:46:47;;;;;;;17.63;6.55;;;;;;;21.15;52.46;100824.69;5051185;28;20086;-48
2023/07/16 02:49:12;;;;;;;17.83;6.63;;;;;;;20.96;52.95;100818.16;5032608;28;20532;-43
2023/07/16 02:51:38;;;;;;;16.08;6.75;;;;;;;20.93;53.16;100811.16;5050306;28;20037;-47
2023/07/16 02:54:03;;;;;;;16.85;6.53;;;;;;;20.97;53.03;100838.44;5050078;28;20032;-46
2023/07/16 02:56:28;;;;;;;15.00;6.78;;;;;;;21.26;52.39;100829.63;5050478;28;20114;-43
2023/07/16 02:58:54;;;;;;;19.45;6.60;;;;;;;21.14;52.53;100822.91;5050374;28;20063;-46
2023/07/16 03:01:19;;;;;;;15.43;6.35;;;;;;;21.31;52.24;100822.41;5053574;28;20029;-47
2023/07/16 03:03:44;;;;;;;16.40;6.50;;;;;;;20.98;52.95;100827.78;5052058;28;20522;-43
2023/07/16 03:06:10;;;;;;;14.13;5.80;;;;;;;20.79;53.42;100831.06;5050429;28;20389;-45
2023/07/16 03:08:35;;;;;;;13.52;5.65;;;;;;;21.09;52.70;100835.44;5032157;28;20709;-44
2023/07/16 03:11:00;;;;;;;22.02;5.82;;;;;;;20.85;53.62;100844.13;5049170;28;20379;-47
2023/07/16 03:13:26;;;;;;;11.85;5.60;;;;;;;20.97;53.10;100835.81;5051008;28;20025;-45
2023/07/16 03:15:51;;;;;;;12.75;5.05;;;;;;;20.97;53.09;100843.75;5050699;28;20032;-43
2023/07/16 03:18:19;;;;;;;13.32;5.43;;;;;;;20.87;53.57;100855.53;5051631;28;20033;-49
2023/07/16 03:20:45;;;;;;;13.18;4.70;;;;;;;21.01;53.03;100854.22;5049497;28;20403;-46
2023/07/16 03:23:10;;;;;;;15.15;5.03;;;;;;;20.99;53.14;100863.97;5049979;28;20033;-44
2023/07/16 03:25:35;;;;;;;10.52;4.72;;;;;;;21.00;52.99;100857.78;5050120;28;20449;-44
2023/07/16 03:28:01;;;;;;;13.48;4.85;;;;;;;21.03;53.10;100864.78;5049443;28;20067;-50
2023/07/16 03:30:26;;;;;;;11.25;4.20;;;;;;;21.26;52.67;100866.75;5049554;28;20067;-44
2023/07/16 03:32:52;;;;;;;13.75;4.60;;;;;;;21.09;53.34;100869.03;5050768;28;20041;-46
2023/07/16 03:35:17;;;;;;;13.35;4.47;;;;;;;21.14;53.10;100854.72;5050976;28;20041;-44
2023/07/16 03:37:42;;;;;;;10.98;4.75;;;;;;;21.23;53.31;100865.06;5050990;28;20208;-44
2023/07/16 03:40:16;;;;;;;16.55;5.00;;;;;;;21.13;53.47;100870.66;5050025;28;20119;-47
2023/07/16 03:42:42;;;;;;;;;;;;;;;20.96;54.25;100873.81;5051245;28;20083;-46
2023/07/16 03:45:09;;;;;;;13.02;4.95;;;;;;;21.14;53.40;100875.06;5050513;28;19959;-43
2023/07/16 03:47:35;;;;;;;16.65;5.50;;;;;;;21.14;53.58;100869.75;5050264;28;20033;-45
2023/07/16 03:50:00;;;;;;;11.52;5.15;;;;;;;20.83;54.61;100891.84;5048981;28;20036;-46
2023/07/16 03:52:26;;;;;;;13.48;5.10;;;;;;;21.15;54.10;100896.25;5050126;28;20037;-47
2023/07/16 03:54:51;;;;;;;14.50;5.07;;;;;;;21.17;54.23;100889.09;5049599;28;20403;-44
2023/07/16 03:57:17;;;;;;;12.25;5.57;;;;;;;20.77;55.82;100894.69;5050027;28;20487;-49
2023/07/16 03:59:42;;;;;;;15.45;5.70;;;;;;;21.00;54.91;100894.00;5048753;28;20044;-46
2023/07/16 04:02:08;;;;;;;16.73;5.70;;;;;;;20.85;55.78;100883.88;5049707;28;20037;-46
2023/07/16 04:04:33;;;;;;;16.58;5.88;;;;;;;20.93;55.20;100895.97;5049861;28;20044;-48
2023/07/16 04:06:59;;;;;;;15.02;5.70;;;;;;;21.13;54.48;100907.78;5049516;28;20119;-49
2023/07/16 04:09:24;;;;;;;15.27;5.93;;;;;;;20.75;55.25;100899.13;5050579;28;20045;-44
2023/07/16 04:11:50;;;;;;;14.55;5.88;;;;;;;20.93;54.82;100903.91;5050182;28;20037;-46
2023/07/16 04:14:15;;;;;;;13.52;5.85;;;;;;;20.73;55.60;100895.69;5050446;28;20033;-48
2023/07/16 04:16:40;;;;;;;14.35;5.68;;;;;;;20.65;56.04;100905.63;5049066;28;20080;-43
2023/07/16 04:19:07;;;;;;;14.35;6.03;;;;;;;20.81;55.15;100904.25;5048762;28;20037;-45
2023/07/16 04:21:32;;;;;;;13.07;5.65;;;;;;;20.86;54.87;100910.28;5049026;28;20029;-47
2023/07/16 04:23:58;;;;;;;14.02;5.95;;;;;;;21.09;54.17;100900.84;5048670;28;22795;-48
2023/07/16 04:26:23;;;;;;;15.43;6.32;;;;;;;21.04;53.91;100901.81;5049892;28;20048;-47
2023/07/16 04:28:48;;;;;;;16.45;5.70;;;;;;;21.09;54.03;100911.44;5050995;28;20107;-47
2023/07/16 04:31:14;;;;;;;16.63;5.90;;;;;;;21.20;53.31;100912.88;5050249;28;20037;-43
2023/07/16 04:33:39;;;;;;;15.93;6.38;;;;;;;20.87;54.09;100924.41;5048839;28;20033;-43
2023/07/16 04:36:04;;;;;;;12.45;5.65;;;;;;;21.42;52.88;100926.38;5050453;28;20071;-46
2023/07/16 04:38:30;;;;;;;16.48;6.20;;;;;;;20.86;54.18;100920.06;5051033;28;20037;-44
2023/07/16 04:40:55;;;;;;;13.77;6.13;;;;;;;20.98;53.90;100928.50;5050417;28;20400;-45
2023/07/16 04:43:20;;;;;;;13.98;6.30;;;;;;;21.18;53.39;100930.63;5031648;28;20063;-46
2023/07/16 04:45:46;;;;;;;13.40;5.70;;;;;;;21.27;52.93;100926.84;5048820;28;20495;-46
2023/07/16 04:48:12;;;;;;;12.45;5.72;;;;;;;21.22;53.11;100928.75;5048830;28;20198;-47
2023/07/16 04:50:38;;;;;;;13.85;5.90;;;;;;;21.37;52.50;100933.59;5048660;28;20037;-45
2023/07/16 04:53:04;;;;;;;16.70;5.95;;;;;;;21.48;52.17;100942.09;5052296;28;20575;-45
2023/07/16 04:55:34;;;;;;;13.15;5.65;;;;;;;21.31;52.04;100949.69;5035111;28;20120;-48
2023/07/16 04:57:59;;;;;;;14.48;6.20;;;;;;;21.34;51.74;100939.88;5052216;28;20043;-48
2023/07/16 05:00:25;;;;;;;12.15;5.53;;;;;;;21.61;50.77;100939.94;5052748;28;20033;-43
2023/07/16 05:02:50;;;;;;;14.85;6.07;;;;;;;21.55;50.44;100942.78;5052335;28;20040;-46
2023/07/16 05:05:15;;;;;;;13.50;6.25;;;;;;;21.40;50.64;100946.78;5051502;28;20056;-44
2023/07/16 05:07:41;;;;;;;10.10;5.53;;;;;;;21.47;49.67;100936.84;5051546;28;20125;-48
2023/07/16 05:10:07;;;;;;;14.15;5.85;;;;;;;21.54;49.96;100941.91;5051977;28;20037;-46
2023/07/16 05:12:32;;;;;;;10.57;5.75;;;;;;;21.60;49.59;100940.84;5052552;28;20120;-45
2023/07/16 05:14:57;;;;;;;10.82;5.40;;;;;;;22.08;47.98;100952.59;5052594;28;20507;-44
2023/07/16 05:17:23;;;;;;;10.45;5.50;;;;;;;21.92;48.03;100961.94;5052920;28;20503;-46
2023/07/16 05:19:48;;;;;;;8.75;5.00;;;;;;;22.32;47.39;100964.22;5051665;28;20041;-50
2023/07/16 05:22:13;;;;;;;9.65;5.38;;;;;;;23.33;44.86;100954.38;5052666;28;20474;-43
2023/07/16 05:24:39;;;;;;;10.60;4.82;;;;;;;24.46;42.49;100953.38;5052597;28;20061;-49
2023/07/16 05:27:04;;;;;;;11.25;5.20;;;;;;;24.72;41.35;100946.94;5052448;28;20037;-43
2023/07/16 05:29:30;;;;;;;9.77;4.80;;;;;;;24.51;41.89;100962.09;5043090;28;20041;-44
2023/07/16 05:31:55;;;;;;;10.90;4.78;;;;;;;24.94;40.68;100965.56;5053454;28;20057;-44
2023/07/16 05:34:20;;;;;;;9.75;4.75;;;;;;;25.60;39.61;100953.63;5034770;28;20710;-46
2023/07/16 05:36:46;;;;;;;11.05;4.53;;;;;;;26.40;38.62;100953.28;5052197;28;20039;-48
2023/07/16 05:39:14;;;;;;;10.73;4.85;;;;;;;26.05;38.93;100963.88;5051910;28;20051;-51
2023/07/16 05:41:40;;;;;;;12.65;4.75;;;;;;;25.62;40.04;100969.56;5035962;28;20076;-54
2023/07/16 05:44:05;;;;;;;12.13;5.10;;;;;;;24.70;41.63;100963.97;5054936;28;20025;-45
2023/07/16 05:46:31;;;;;;;11.95;5.03;;;;;;;23.86;43.70;100970.09;5054635;28;20699;-43
2023/07/16 05:48:56;;;;;;;11.35;5.03;;;;;;;24.19;43.53;100975.88;5052115;28;20041;-45
2023/07/16 05:51:21;;;;;;;11.77;5.03;;;;;;;23.95;44.46;100977.72;5051213;28;20040;-47
2023/07/16 05:53:47;;;;;;;11.27;4.80;;;;;;;24.03;44.54;100985.41;5051124;28;20041;-45
2023/07/16 05:56:12;;;;;;;13.40;5.35;;;;;;;23.05;46.34;100975.78;5051548;28;20037;-44
2023/07/16 05:58:40;;;;;;;14.15;5.20;;;;;;;23.22;45.98;100977.00;5051346;28;20041;-46
2023/07/16 06:01:06;;;;;;;13.52;5.10;;;;;;;24.27;43.17;100986.22;5050801;28;20041;-46
2023/07/16 06:03:31;;;;;;;10.13;5.20;;;;;;;25.09;41.71;100982.69;5050802;28;20099;-50
2023/07/16 06:05:57;;;;;;;10.75;5.30;;;;;;;25.23;40.47;100977.59;5048877;28;20035;-51
2023/07/16 06:08:24;;;;;;;10.57;5.00;;;;;;;24.73;42.21;100991.34;5053253;28;20047;-47
2023/07/16 06:10:50;;;;;;;10.35;5.10;;;;;;;25.34;40.82;100993.97;5052581;28;20067;-44
2023/07/16 06:13:15;;;;;;;11.32;4.90;;;;;;;24.88;41.06;100988.03;5053248;28;20465;-46
2023/07/16 06:15:40;;;;;;;14.10;5.45;;;;;;;25.41;39.93;100998.09;5052688;28;20033;-44
2023/07/16 06:18:06;;;;;;;9.65;5.15;;;;;;;26.30;38.07;101002.78;5052523;28;20029;-47
2023/07/16 06:20:31;;;;;;;9.82;4.95;;;;;;;26.18;37.72;101002.41;5051797;28;20033;-48
2023/07/16 06:22:57;;;;;;;11.45;5.00;;;;;;;26.66;36.91;101000.94;5051532;28;20497;-45
2023/07/16 06:25:22;;;;;;;10.27;5.28;;;;;;;25.04;39.72;101005.09;5033863;28;20068;-47
2023/07/16 06:27:47;;;;;;;13.18;5.35;;;;;;;25.48;38.86;100999.56;5050726;28;20044;-48
2023/07/16 06:30:13;;;;;;;11.32;5.00;;;;;;;25.64;38.81;101015.75;5050991;28;20041;-45
2023/07/16 06:32:38;;;;;;;11.05;5.30;;;;;;;24.34;41.92;101017.88;5051458;28;20037;-46
2023/07/16 06:35:04;;;;;;;12.32;4.90;;;;;;;25.59;40.30;101012.44;5051133;28;20041;-50
2023/07/16 06:37:29;;;;;;;9.05;4.75;;;;;;;26.74;37.95;101021.94;5051243;28;20713;-45
2023/07/16 06:39:55;;;;;;;11.50;5.35;;;;;;;26.57;38.78;101029.03;5049572;28;20530;-47
2023/07/16 06:42:20;;;;;;;10.18;4.82;;;;;;;27.47;36.22;101032.34;5050833;28;20036;-49
2023/07/16 06:44:45;;;;;;;10.63;4.70;;;;;;;26.50;38.38;101026.72;5050167;28;20126;-46
2023/07/16 06:47:11;;;;;;;8.52;4.70;;;;;;;26.85;37.63;101043.66;5050463;28;20033;-48
2023/07/16 06:49:36;;;;;;;17.67;5.50;;;;;;;26.36;38.98;101032.75;5049890;28;20041;-45
2023/07/16 06:52:02;;;;;;;10.05;4.65;;;;;;;25.66;39.81;101052.13;5049697;28;20025;-47
2023/07/16 06:54:27;;;;;;;11.35;4.68;;;;;;;26.89;37.51;101042.59;5050339;28;20040;-47
2023/07/16 06:56:53;;;;;;;10.90;4.75;;;;;;;27.16;37.16;101049.19;5050057;28;20498;-44
2023/07/16 06:59:18;;;;;;;10.60;4.40;;;;;;;26.86;37.38;101053.41;5050039;28;20319;-43
2023/07/16 07:01:43;;;;;;;11.32;4.60;;;;;;;25.99;39.23;101044.31;5049789;28;20061;-47
2023/07/16 07:04:09;;;;;;;11.15;5.00;;;;;;;26.18;39.21;101060.34;5050232;28;20088;-46
2023/07/16 07:06:34;;;;;;;16.20;5.32;;;;;;;25.69;39.99;101051.97;5050169;28;20037;-44
2023/07/16 07:09:00;;;;;;;12.88;5.22;;;;;;;24.92;41.41;101063.44;5048713;28;20029;-44
2023/07/16 07:11:25;;;;;;;11.68;5.38;;;;;;;24.48;42.36;101060.81;5050026;28;20033;-46
2023/07/16 07:13:52;;;;;;;10.75;5.18;;;;;;;25.26;41.32;101046.81;5049421;28;20562;-48
2023/07/16 07:16:17;;;;;;;12.18;5.30;;;;;;;25.48;40.67;101065.44;5050228;28;20036;-46
2023/07/16 07:18:43;;;;;;;10.85;5.40;;;;;;;25.15;41.09;101065.09;5049440;28;20036;-46
2023/07/16 07:21:08;;;;;;;11.02;5.50;;;;;;;24.44;42.23;101066.34;5049274;28;20029;-48
2023/07/16 07:23:33;;;;;;;15.13;6.00;;;;;;;23.91;44.22;101081.75;5050028;28;20048;-44
2023/07/16 07:25:59;;;;;;;12.63;5.53;;;;;;;23.95;44.43;101086.03;5049484;28;20040;-46
2023/07/16 07:28:25;;;;;;;13.27;5.97;;;;;;;23.96;44.00;101079.78;5050176;28;20037;-49
2023/07/16 07:30:50;;;;;;;11.73;6.07;;;;;;;23.98;44.62;101085.91;5049053;28;20033;-46
2023/07/16 07:33:15;;;;;;;14.57;5.90;;;;;;;23.66;45.39;101089.81;5050194;28;20041;-47
2023/07/16 07:35:41;;;;;;;13.18;5.90;;;;;;;23.53;45.89;101091.19;5049388;28;20094;-50
2023/07/16 07:38:06;;;;;;;11.93;5.75;;;;;;;23.45;46.32;101100.25;5049576;28;20483;-49
2023/07/16 07:40:32;;;;;;;16.95;5.97;;;;;;;23.81;44.94;101091.88;5049248;28;20120;-46
2023/07/16 07:42:57;;;;;;;10.90;5.50;;;;;;;23.36;46.44;101102.41;5049931;28;20519;-51
2023/07/16 07:45:23;;;;;;;13.40;5.65;;;;;;;23.75;45.36;101092.97;5049727;28;20591;-45
2023/07/16 07:47:49;;;;;;;13.25;5.40;;;;;;;24.71;42.79;101096.31;5048850;28;20033;-44
2023/07/16 07:50:14;;;;;;;11.60;4.78;;;;;;;24.57;43.15;101094.22;5049663;28;20119;-44
2023/07/16 07:52:39;;;;;;;8.95;4.97;;;;;;;25.33;41.91;101096.31;5048014;28;20037;-48
2023/07/16 07:55:05;;;;;;;12.15;4.88;;;;;;;25.35;41.71;101094.47;5049955;28;20040;-47
2023/07/16 07:57:30;;;;;;;11.88;4.75;;;;;;;25.10;42.59;101102.66;5049804;28;20562;-46
2023/07/16 07:59:59;;;;;;;12.50;4.93;;;;;;;25.42;41.60;101093.25;5048870;28;20057;-47
2023/07/16 08:02:25;;;;;;;10.40;5.30;;;;;;;25.51;42.29;101106.19;5049635;28;20487;-47
2023/07/16 08:04:54;;;;;;;12.35;4.88;;;;;;;26.38;40.56;101107.53;5048849;28;20054;-48
2023/07/16 08:07:20;;;;;;;11.68;5.13;;;;;;;25.54;41.29;101113.19;5049701;28;20045;-46
2023/07/16 08:09:46;;;;;;;12.25;4.88;;;;;;;26.43;40.33;101101.03;5048774;28;20067;-48
2023/07/16 08:12:12;;;;;;;9.80;4.28;;;;;;;25.19;41.55;101123.59;5049727;28;20029;-45
2023/07/16 08:14:38;;;;;;;9.55;4.10;;;;;;;24.82;42.77;101134.97;5049771;28;20047;-46
2023/07/16 08:17:03;;;;;;;12.02;4.55;;;;;;;24.83;42.92;101128.66;5050787;28;20515;-47
2023/07/16 08:19:29;;;;;;;10.68;4.57;;;;;;;24.47;43.95;101140.81;5050127;28;20040;-45
2023/07/16 08:21:54;;;;;;;13.90;4.80;;;;;;;23.68;45.79;101146.50;5048894;28;20037;-47
2023/07/16 08:24:20;;;;;;;11.73;4.78;;;;;;;23.97;45.49;101148.94;5049386;28;20041;-49
2023/07/16 08:26:45;;;;;;;10.98;5.00;;;;;;;24.25;44.15;101131.03;5050131;28;20124;-51
2023/07/16 08:29:10;;;;;;;15.02;5.20;;;;;;;25.05;42.51;101134.88;5052778;28;20029;-48
2023/07/16 08:31:36;;;;;;;14.55;5.03;;;;;;;25.20;42.80;101140.47;5054329;28;20033;-48
2023/07/16 08:34:01;;;;;;;12.68;5.10;;;;;;;24.89;42.45;101127.56;5054635;28;20369;-47
2023/07/16 08:36:27;;;;;;;11.05;5.10;;;;;;;24.99;42.51;101142.28;5054439;28;20033;-43
2023/07/16 08:38:52;;;;;;;11.73;4.95;;;;;;;24.62;43.38;101143.75;5053681;28;20030;-48
2023/07/16 08:41:17;;;;;;;11.75;4.97;;;;;;;24.25;44.58;101152.34;5052581;28;20036;-43
2023/07/16 08:43:46;;;;;;;12.38;5.07;;;;;;;23.71;46.08;101151.72;5054224;28;20029;-53
2023/07/16 08:46:12;;;;;;;12.45;5.10;;;;;;;23.60;46.00;101152.13;5055147;28;20036;-43
2023/07/16 08:48:37;;;;;;;12.57;4.70;;;;;;;23.44;46.09;101153.53;5054958;28;20041;-44
2023/07/16 08:51:03;;;;;;;14.90;4.95;;;;;;;23.77;45.46;101160.34;5055110;28;20070;-50
2023/07/16 08:53:30;;;;;;;11.32;5.30;;;;;;;24.10;44.49;101152.00;5055722;28;20033;-45
2023/07/16 08:55:55;;;;;;;13.82;5.15;;;;;;;23.96;44.68;101179.19;5055017;28;20633;-44
2023/07/16 08:58:23;;;;;;;12.25;5.30;;;;;;;24.10;45.30;101162.66;5055475;28;20133;-47
2023/07/16 09:00:48;;;;;;;11.50;5.15;;;;;;;24.09;45.17;101164.47;5054454;28;20037;-45
2023/07/16 09:03:16;;;;;;;11.52;5.28;;;;;;;24.27;44.87;101166.44;5054238;28;20072;-44
2023/07/16 09:05:42;;;;;;;13.88;5.25;;;;;;;24.43;44.51;101172.06;5054346;28;20128;-48
2023/07/16 09:08:08;;;;;;;11.25;5.45;;;;;;;24.22;45.09;101180.88;5036645;28;20583;-47
2023/07/16 09:10:34;;;;;;;11.52;4.90;;;;;;;24.90;43.24;101159.53;5034644;28;20041;-50
2023/07/16 09:13:00;;;;;;;10.27;5.20;;;;;;;25.07;42.46;101166.81;5051993;28;20391;-51
2023/07/16 09:15:27;;;;;;;12.45;5.05;;;;;;;24.60;43.27;101176.72;5052682;28;20083;-45
2023/07/16 09:17:54;;;;;;;13.02;5.47;;;;;;;24.63;43.67;101177.50;5051447;28;20115;-43
2023/07/16 09:20:20;;;;;;;12.80;5.15;;;;;;;24.66;43.75;101166.69;5051913;28;20507;-50
2023/07/16 09:22:47;;;;;;;12.93;4.80;;;;;;;24.56;43.85;101180.47;5033997;28;20037;-45
2023/07/16 09:25:13;;;;;;;9.68;4.57;;;;;;;24.23;44.21;101180.84;5034173;28;20068;-44
2023/07/16 09:27:38;;;;;;;13.93;5.10;;;;;;;24.50;43.84;101173.56;5052471;28;20080;-48
2023/07/16 09:30:05;;;;;;;12.98;4.75;;;;;;;24.22;44.44;101187.09;5033521;28;20036;-44
2023/07/16 09:32:39;;;;;;;13.52;4.57;;;;;;;23.97;44.70;101188.88;5052324;28;20040;-45
2023/07/16 09:35:12;;;;;;;11.80;4.38;;;;;;;23.84;44.74;101188.50;5051104;28;20407;-48
2023/07/16 09:37:38;;;;;;;9.90;3.90;;;;;;;23.79;45.59;101184.22;5049436;28;20044;-43
2023/07/16 09:40:07;;;;;;;12.95;4.20;;;;;;;23.60;45.05;101196.50;5050712;28;20399;-48
2023/07/16 09:42:38;;;;;;;10.80;4.20;;;;;;;23.61;46.52;101195.53;5052300;28;20055;-46
2023/07/16 09:45:06;;;;;;;12.25;4.25;;;;;;;24.02;45.26;101207.38;5033659;28;20720;-48
2023/07/16 09:47:31;;;;;;;11.68;4.07;;;;;;;23.60;46.02;101199.16;5051992;28;20048;-47
2023/07/16 09:49:57;;;;;;;10.02;4.20;;;;;;;23.40;46.09;101210.44;5049895;28;20116;-46
2023/07/16 09:52:26;;;;;;;15.07;4.60;;;;;;;23.58;45.59;101208.97;5050780;28;20061;-45
2023/07/16 09:54:55;;;;;;;13.43;4.45;;;;;;;24.63;43.38;101211.28;5051084;28;20037;-50
2023/07/16 09:57:23;;;;;;;13.48;4.30;;;;;;;24.67;43.26;101211.09;5033929;28;20040;-47
2023/07/16 09:59:51;;;;;;;11.95;4.18;;;;;;;24.95;42.46;101197.53;5032130;28;20037;-47
2023/07/16 10:02:17;;;;;;;11.43;4.15;;;;;;;25.08;42.61;101213.03;5051938;28;20029;-44
2023/07/16 10:04:43;;;;;;;9.70;4.25;;;;;;;24.97;42.58;101209.03;5034002;28;20041;-46
2023/07/16 10:07:23;;;;;;;9.98;4.05;;;;;;;24.81;42.73;101220.34;5050691;28;20056;-45
2023/07/16 10:09:55;;;;;;;11.18;4.32;;;;;;;24.79;42.96;101235.53;5051333;28;20033;-45
2023/07/16 10:12:22;;;;;;;10.55;4.47;;;;;;;24.72;42.43;101220.69;5052378;28;20503;-45
2023/07/16 10:14:48;;;;;;;12.15;3.47;;;;;;;24.81;41.44;101231.00;5052414;28;20120;-44
2023/07/16 10:17:17;;;;;;;10.27;3.10;;;;;;;24.65;40.84;101228.06;5053002;28;20094;-44
2023/07/16 10:19:55;;;;;;;9.90;3.30;;;;;;;25.07;40.37;101232.66;5052914;28;20033;-45
2023/07/16 10:22:38;;;;;;;10.77;3.00;;;;;;;24.74;40.80;101234.84;5053930;28;20041;-45
2023/07/16 10:25:18;;;;;;;10.40;2.92;;;;;;;24.48;41.58;101242.06;5052047;28;20584;-46
2023/07/16 10:27:46;;;;;;;9.43;3.03;;;;;;;24.96;40.21;101236.63;5050937;28;20605;-46
2023/07/16 10:30:12;;;;;;;9.18;2.90;;;;;;;25.26;39.90;101245.16;5050614;28;20115;-45
2023/07/16 10:32:37;;;;;;;8.35;3.30;;;;;;;24.77;40.20;101240.91;5051163;28;20125;-49
2023/07/16 10:35:05;;;;;;;8.48;3.00;;;;;;;24.71;39.54;101237.63;5050913;28;20037;-48
2023/07/16 10:37:30;;;;;;;8.80;2.95;;;;;;;24.77;39.63;101258.72;5051509;28;20090;-46
2023/07/16 10:39:58;;;;;;;7.72;2.97;;;;;;;25.13;39.84;101229.75;5049885;28;20044;-50
2023/07/16 10:42:24;;;;;;;10.77;3.00;;;;;;;25.23;38.57;101250.66;5033022;28;20148;-51
2023/07/16 10:44:54;;;;;;;8.25;3.10;;;;;;;25.07;39.33;101254.84;5050734;28;20124;-47
2023/07/16 10:47:22;;;;;;;7.05;2.45;;;;;;;24.62;37.06;101263.72;5050983;28;20033;-47
2023/07/16 10:49:49;;;;;;;12.70;2.70;;;;;;;25.25;36.55;101269.28;5049260;28;20095;-50
2023/07/16 10:52:14;;;;;;;7.43;2.30;;;;;;;24.86;36.50;101258.38;5050601;28;20098;-50
2023/07/16 10:54:40;;;;;;;8.00;2.30;;;;;;;25.76;35.79;101259.06;5050505;28;20040;-44
2023/07/16 10:57:06;;;;;;;7.90;2.20;;;;;;;25.96;35.05;101270.69;5050742;28;20033;-44
2023/07/16 10:59:31;;;;;;;9.85;2.28;;;;;;;25.71;35.95;101279.78;5051981;28;20472;-46
2023/07/16 11:01:58;;;;;;;9.30;2.42;;;;;;;25.35;38.02;101286.63;5052035;28;20044;-50
2023/07/16 11:04:23;;;;;;;8.32;2.55;;;;;;;25.04;38.54;101297.69;5052001;28;20044;-48
2023/07/16 11:06:50;;;;;;;9.70;2.72;;;;;;;25.98;37.18;101287.53;5050051;28;20037;-48
2023/07/16 11:09:15;;;;;;;9.30;2.72;;;;;;;25.65;38.17;101290.72;5050078;28;20037;-48
2023/07/16 11:11:40;;;;;;;9.70;2.70;;;;;;;25.04;38.26;101298.56;5052113;28;20032;-45
2023/07/16 11:14:07;;;;;;;9.23;2.70;;;;;;;25.20;38.00;101309.47;5053596;28;20108;-45
2023/07/16 11:16:36;;;;;;;10.65;2.42;;;;;;;25.63;37.55;101299.72;5054022;28;20040;-43